Nearby METAR Reports

 

KNTU - NAS Oceana, Virginia Beach, Virginia, USA
Distance from station: N 3.2mi, 5.1km
Updated: Wed, 05-Aug-2020 5:56am EDT
Partly cloudy
Partly cloudy
 Wind from W
Wind: W 6 mph , 9 km/h
Temperature: 75°F , 24°C
Dew Point: 73°F , 23°C
Humidity: 94%
Barometer: 29.99 inHg , 1015.6 hPa
Clouds: Partly cloudy
Visibility: 10 miles , 16 km
Cloud details: Partly cloudy 30000 ft
2020/08/05 09:56 KNTU 050956Z 26005KT 10SM SCT300 24/23 A2999 RMK AO2 SLP158 T02440228 $
KNFE - Fentress NALF, Virginia Beach Virginia, USA
Distance from station: SW 7.6mi, 12.2km
Updated: Wed, 05-Aug-2020 5:56am EDT
Clear
Clear
 Wind from calm
Wind: Calm
Temperature: 73°F , 23°C
Dew Point: 73°F , 23°C
Humidity: 100%
Barometer: 30.00 inHg , 1015.9 hPa
Clouds: Clear
Visibility: 10 miles , 16 km
2020/08/05 09:56 KNFE 050956Z AUTO 00000KT 10SM CLR 23/23 A3000 RMK AO2 SLP162 T02330233
 
KORF - Norfolk International, Norfolk, Virginia, USA
Distance from station: NW 12.2mi, 19.6km
Updated: Wed, 05-Aug-2020 5:51am EDT
Clear
Clear
 Wind from SSW
Wind: SSW 8 mph , 13 km/h
Temperature: 77°F , 25°C
Dew Point: 73°F , 23°C
Humidity: 89%
Barometer: 30.00 inHg , 1015.9 hPa
Clouds: Clear
Visibility: 10 miles , 16 km
2020/08/05 09:51 KORF 050951Z AUTO 21007KT 10SM CLR 25/23 A3000 RMK AO2 SLP157 T02500233
KCPK - Cheasapeak Municipal, Cheasapeak, Virginia, USA
Distance from station: SW 17.2mi, 27.7km
Updated: Wed, 05-Aug-2020 6:15am EDT
Clear
Clear
 Wind from SSW
Wind: SSW 3 mph , 6 km/h
Temperature: 73°F , 23°C
Dew Point: 72°F , 22°C
Humidity: 94%
Barometer: 30.01 inHg , 1016.3 hPa
Clouds: Clear
Visibility: 7 miles , 11 km
2020/08/05 10:15 KCPK 051015Z AUTO 21003KT 7SM CLR 23/22 A3001 RMK AO2 T02250220
 
KNGU - NAS Norfolk, Norfolk, Virginia, USA
Distance from station: NW 17.7mi, 28.5km
Updated: Wed, 05-Aug-2020 5:59am EDT
Few Clouds
Few Clouds
 Wind from S
Wind: S 6 mph , 9 km/h
Temperature: 79°F , 26°C
Dew Point: 72°F , 22°C
Humidity: 79%
Barometer: 30.01 inHg , 1016.3 hPa
Clouds: Few Clouds
Visibility: 10 miles , 16 km
Cloud details: Few Clouds 26000 ft
2020/08/05 09:59 KNGU 050959Z 18005KT 10SM FEW260 26/22 A3001 RMK AO2 SLP162 T02560222